Time,TemperatureF,DewpointF,PressureIn,WindDirection,WindDirectionDegrees,WindSpeedMPH,WindSpeedGustMPH,Humidity,HourlyPrecipIn,Conditions,Clouds,dailyrainin,SolarRadiationWatts/m^2,SoftwareType,DateUTC
2013-05-27 00:02:00,49.0,36.0,-100.00,SE,125,2.0,5.0,60,0.00,,,0.00,0.000000,,2013-05-27 05:02:00,
2013-05-27 00:10:00,47.0,37.0,-100.00,East,101,2.0,5.0,68,0.00,,,0.00,0.000000,,2013-05-27 05:10:00,
2013-05-27 00:32:00,47.0,37.0,-100.00,East,101,2.0,5.0,68,0.00,,,0.00,0.000000,,2013-05-27 05:32:00,
2013-05-27 00:42:00,47.0,37.0,-100.00,East,101,2.0,5.0,68,0.00,,,0.00,0.000000,,2013-05-27 05:42:00,
2013-05-27 00:52:00,47.0,37.0,-100.00,East,101,2.0,5.0,68,0.00,,,0.00,0.000000,,2013-05-27 05:52:00,
2013-05-27 01:02:00,47.0,37.0,-100.00,East,101,2.0,5.0,68,0.00,,,0.00,0.000000,,2013-05-27 06:02:00,
2013-05-27 01:10:00,46.0,39.0,-100.00,ESE,111,3.0,6.0,76,0.00,,,0.00,0.000000,,2013-05-27 06:10:00,
2013-05-27 01:32:00,46.0,39.0,-100.00,ESE,111,3.0,6.0,76,0.00,,,0.00,0.000000,,2013-05-27 06:32:00,
2013-05-27 01:42:00,46.0,39.0,-100.00,ESE,111,3.0,6.0,76,0.00,,,0.00,0.000000,,2013-05-27 06:42:00,
2013-05-27 01:52:00,46.0,39.0,-100.00,ESE,111,3.0,6.0,76,0.00,,,0.00,0.000000,,2013-05-27 06:52:00,
2013-05-27 02:02:00,46.0,39.0,-100.00,ESE,111,3.0,6.0,76,0.00,,,0.00,0.000000,,2013-05-27 07:02:00,
2013-05-27 02:10:00,47.0,37.0,-100.00,SE,133,3.0,10.0,68,0.00,,,0.00,0.000000,,2013-05-27 07:10:00,
2013-05-27 02:32:00,47.0,37.0,-100.00,SE,133,3.0,10.0,68,0.00,,,0.00,0.000000,,2013-05-27 07:32:00,
2013-05-27 02:42:00,47.0,37.0,-100.00,SE,133,3.0,10.0,68,0.00,,,0.00,0.000000,,2013-05-27 07:42:00,
2013-05-27 02:52:00,47.0,37.0,-100.00,SE,133,3.0,10.0,68,0.00,,,0.00,0.000000,,2013-05-27 07:52:00,
2013-05-27 03:02:00,47.0,37.0,-100.00,SE,133,3.0,10.0,68,0.00,,,0.00,0.000000,,2013-05-27 08:02:00,
2013-05-27 03:10:00,47.0,36.0,-100.00,SE,127,3.0,8.0,66,0.00,,,0.00,0.000000,,2013-05-27 08:10:00,
2013-05-27 03:33:00,47.0,36.0,-100.00,SE,127,3.0,8.0,66,0.00,,,0.00,0.000000,,2013-05-27 08:33:00,
2013-05-27 03:42:00,47.0,36.0,-100.00,SE,127,3.0,8.0,66,0.00,,,0.00,0.000000,,2013-05-27 08:42:00,
2013-05-27 03:52:00,47.0,36.0,-100.00,SE,127,3.0,8.0,66,0.00,,,0.00,0.000000,,2013-05-27 08:52:00,
2013-05-27 04:02:00,47.0,36.0,-100.00,SE,127,3.0,8.0,66,0.00,,,0.00,0.000000,,2013-05-27 09:02:00,
2013-05-27 04:10:00,46.0,32.0,-100.00,SE,131,3.0,11.0,59,0.00,,,0.00,0.000000,,2013-05-27 09:10:00,
2013-05-27 04:33:00,46.0,32.0,-100.00,SE,131,3.0,11.0,59,0.00,,,0.00,0.000000,,2013-05-27 09:33:00,
2013-05-27 04:42:00,46.0,32.0,-100.00,SE,131,3.0,11.0,59,0.00,,,0.00,0.000000,,2013-05-27 09:42:00,
2013-05-27 04:53:00,46.0,32.0,-100.00,SE,131,3.0,11.0,59,0.00,,,0.00,0.000000,,2013-05-27 09:53:00,
2013-05-27 05:02:00,46.0,32.0,-100.00,SE,131,3.0,11.0,59,0.00,,,0.00,0.000000,,2013-05-27 10:02:00,
2013-05-27 05:10:00,45.0,32.0,-100.00,ESE,104,3.0,9.0,61,0.00,,,0.00,0.000000,,2013-05-27 10:10:00,
2013-05-27 05:32:00,45.0,32.0,-100.00,ESE,104,3.0,9.0,61,0.00,,,0.00,0.000000,,2013-05-27 10:32:00,
2013-05-27 05:42:00,45.0,32.0,-100.00,ESE,104,3.0,9.0,61,0.00,,,0.00,0.000000,,2013-05-27 10:42:00,
2013-05-27 05:52:00,45.0,32.0,-100.00,ESE,104,3.0,9.0,61,0.00,,,0.00,0.000000,,2013-05-27 10:52:00,
2013-05-27 06:02:00,45.0,32.0,-100.00,ESE,104,3.0,9.0,61,0.00,,,0.00,0.000000,,2013-05-27 11:02:00,
2013-05-27 06:10:00,47.0,34.0,-100.00,ESE,104,2.0,6.0,61,0.00,,,0.00,18.000000,,2013-05-27 11:10:00,
2013-05-27 06:32:00,47.0,34.0,-100.00,ESE,104,2.0,6.0,61,0.00,,,0.00,18.000000,,2013-05-27 11:32:00,
2013-05-27 06:42:00,47.0,34.0,-100.00,ESE,104,2.0,6.0,61,0.00,,,0.00,18.000000,,2013-05-27 11:42:00,
2013-05-27 06:52:00,47.0,34.0,-100.00,ESE,104,2.0,6.0,61,0.00,,,0.00,18.000000,,2013-05-27 11:52:00,
2013-05-27 07:01:00,47.0,34.0,-100.00,ESE,104,2.0,6.0,61,0.00,,,0.00,18.000000,,2013-05-27 12:01:00,
2013-05-27 07:10:00,53.0,35.0,-100.00,SE,130,6.0,14.0,51,0.00,,,0.00,106.000000,,2013-05-27 12:10:00,
2013-05-27 07:32:00,53.0,35.0,-100.00,SE,130,6.0,14.0,51,0.00,,,0.00,106.000000,,2013-05-27 12:32:00,
2013-05-27 07:42:00,53.0,35.0,-100.00,SE,130,6.0,14.0,51,0.00,,,0.00,106.000000,,2013-05-27 12:42:00,
2013-05-27 07:52:00,53.0,35.0,-100.00,SE,130,6.0,14.0,51,0.00,,,0.00,106.000000,,2013-05-27 12:52:00,
2013-05-27 08:01:00,53.0,35.0,-100.00,SE,130,6.0,14.0,51,0.00,,,0.00,106.000000,,2013-05-27 13:01:00,
2013-05-27 08:10:00,56.0,33.0,-100.00,ESE,122,4.0,10.0,42,0.00,,,0.00,138.000000,,2013-05-27 13:10:00,
2013-05-27 08:32:00,56.0,33.0,-100.00,ESE,122,4.0,10.0,42,0.00,,,0.00,138.000000,,2013-05-27 13:32:00,
2013-05-27 08:42:00,56.0,33.0,-100.00,ESE,122,4.0,10.0,42,0.00,,,0.00,138.000000,,2013-05-27 13:42:00,
2013-05-27 08:53:00,56.0,33.0,-100.00,ESE,122,4.0,10.0,42,0.00,,,0.00,138.000000,,2013-05-27 13:53:00,
2013-05-27 09:02:00,56.0,33.0,-100.00,ESE,122,4.0,10.0,42,0.00,,,0.00,138.000000,,2013-05-27 14:02:00,
2013-05-27 09:10:00,59.0,36.0,-100.00,SE,133,5.0,14.0,42,0.00,,,0.00,198.000000,,2013-05-27 14:10:00,
2013-05-27 09:32:00,59.0,36.0,-100.00,SE,133,5.0,14.0,42,0.00,,,0.00,198.000000,,2013-05-27 14:32:00,
2013-05-27 09:42:00,59.0,36.0,-100.00,SE,133,5.0,14.0,42,0.00,,,0.00,198.000000,,2013-05-27 14:42:00,
2013-05-27 09:52:00,59.0,36.0,-100.00,SE,133,5.0,14.0,42,0.00,,,0.00,198.000000,,2013-05-27 14:52:00,
2013-05-27 10:01:00,59.0,36.0,-100.00,SE,133,5.0,14.0,42,0.00,,,0.00,198.000000,,2013-05-27 15:01:00,
2013-05-27 10:10:00,63.0,38.0,-100.00,SE,129,7.0,16.0,39,0.00,,,0.00,251.000000,,2013-05-27 15:10:00,
2013-05-27 10:33:00,63.0,38.0,-100.00,SE,129,7.0,16.0,39,0.00,,,0.00,251.000000,,2013-05-27 15:33:00,
2013-05-27 10:43:00,63.0,38.0,-100.00,SE,129,7.0,16.0,39,0.00,,,0.00,251.000000,,2013-05-27 15:43:00,
2013-05-27 10:53:00,63.0,38.0,-100.00,SE,129,7.0,16.0,39,0.00,,,0.00,251.000000,,2013-05-27 15:53:00,
2013-05-27 11:03:00,63.0,38.0,-100.00,SE,129,7.0,16.0,39,0.00,,,0.00,251.000000,,2013-05-27 16:03:00,
2013-05-27 11:10:00,68.0,35.0,-100.00,SE,135,8.0,19.0,30,0.00,,,0.00,449.000000,,2013-05-27 16:10:00,
2013-05-27 11:33:00,68.0,35.0,-100.00,SE,135,8.0,19.0,30,0.00,,,0.00,449.000000,,2013-05-27 16:33:00,
2013-05-27 11:42:00,68.0,35.0,-100.00,SE,135,8.0,19.0,30,0.00,,,0.00,449.000000,,2013-05-27 16:42:00,
2013-05-27 11:53:00,68.0,35.0,-100.00,SE,135,8.0,19.0,30,0.00,,,0.00,449.000000,,2013-05-27 16:53:00,
2013-05-27 12:02:00,68.0,35.0,-100.00,SE,135,8.0,19.0,30,0.00,,,0.00,449.000000,,2013-05-27 17:02:00,
2013-05-27 12:10:00,71.0,36.0,-100.00,SE,129,6.0,15.0,28,0.00,,,0.00,566.000000,,2013-05-27 17:10:00,
2013-05-27 12:32:00,71.0,36.0,-100.00,SE,129,6.0,15.0,28,0.00,,,0.00,566.000000,,2013-05-27 17:32:00,
2013-05-27 12:43:00,71.0,36.0,-100.00,SE,129,6.0,15.0,28,0.00,,,0.00,566.000000,,2013-05-27 17:43:00,
2013-05-27 12:52:00,71.0,36.0,-100.00,SE,129,6.0,15.0,28,0.00,,,0.00,566.000000,,2013-05-27 17:52:00,
2013-05-27 13:02:00,71.0,36.0,-100.00,SE,129,6.0,15.0,28,0.00,,,0.00,566.000000,,2013-05-27 18:02:00,
2013-05-27 13:10:00,72.0,37.0,-100.00,SE,133,8.0,18.0,28,0.00,,,0.00,626.000000,,2013-05-27 18:10:00,
2013-05-27 13:32:00,72.0,37.0,-100.00,SE,133,8.0,18.0,28,0.00,,,0.00,626.000000,,2013-05-27 18:32:00,
2013-05-27 13:42:00,72.0,37.0,-100.00,SE,133,8.0,18.0,28,0.00,,,0.00,626.000000,,2013-05-27 18:42:00,
2013-05-27 13:52:00,72.0,37.0,-100.00,SE,133,8.0,18.0,28,0.00,,,0.00,626.000000,,2013-05-27 18:52:00,
2013-05-27 14:01:00,72.0,37.0,-100.00,SE,133,8.0,18.0,28,0.00,,,0.00,626.000000,,2013-05-27 19:01:00,
2013-05-27 14:10:00,69.0,35.0,-100.00,SE,129,8.0,19.0,28,0.00,,,0.00,514.000000,,2013-05-27 19:10:00,
2013-05-27 14:32:00,69.0,35.0,-100.00,SE,129,8.0,19.0,28,0.00,,,0.00,514.000000,,2013-05-27 19:32:00,
2013-05-27 14:42:00,69.0,35.0,-100.00,SE,129,8.0,19.0,28,0.00,,,0.00,514.000000,,2013-05-27 19:42:00,
2013-05-27 14:52:00,69.0,35.0,-100.00,SE,129,8.0,19.0,28,0.00,,,0.00,514.000000,,2013-05-27 19:52:00,
2013-05-27 15:01:00,69.0,35.0,-100.00,SE,129,8.0,19.0,28,0.00,,,0.00,514.000000,,2013-05-27 20:01:00,
2013-05-27 15:10:00,73.0,38.0,-100.00,ESE,121,5.0,16.0,28,0.00,,,0.00,639.000000,,2013-05-27 20:10:00,
2013-05-27 15:32:00,73.0,38.0,-100.00,ESE,121,5.0,16.0,28,0.00,,,0.00,639.000000,,2013-05-27 20:32:00,
2013-05-27 15:42:00,73.0,38.0,-100.00,ESE,121,5.0,16.0,28,0.00,,,0.00,639.000000,,2013-05-27 20:42:00,
2013-05-27 15:52:00,73.0,38.0,-100.00,ESE,121,5.0,16.0,28,0.00,,,0.00,639.000000,,2013-05-27 20:52:00,
2013-05-27 16:01:00,73.0,38.0,-100.00,ESE,121,5.0,16.0,28,0.00,,,0.00,639.000000,,2013-05-27 21:01:00,
2013-05-27 16:10:00,70.0,37.0,-100.00,SSE,156,6.0,18.0,30,0.00,,,0.00,502.000000,,2013-05-27 21:10:00,
2013-05-27 16:33:00,70.0,37.0,-100.00,SSE,156,6.0,18.0,30,0.00,,,0.00,502.000000,,2013-05-27 21:33:00,
2013-05-27 16:43:00,70.0,37.0,-100.00,SSE,156,6.0,18.0,30,0.00,,,0.00,502.000000,,2013-05-27 21:43:00,
2013-05-27 16:53:00,70.0,37.0,-100.00,SSE,156,6.0,18.0,30,0.00,,,0.00,502.000000,,2013-05-27 21:53:00,
2013-05-27 17:02:00,70.0,37.0,-100.00,SSE,156,6.0,18.0,30,0.00,,,0.00,502.000000,,2013-05-27 22:02:00,
2013-05-27 17:10:00,67.0,37.0,-100.00,SE,143,7.0,16.0,33,0.00,,,0.00,227.000000,,2013-05-27 22:10:00,
2013-05-27 17:33:00,67.0,37.0,-100.00,SE,143,7.0,16.0,33,0.00,,,0.00,227.000000,,2013-05-27 22:33:00,
2013-05-27 17:42:00,67.0,37.0,-100.00,SE,143,7.0,16.0,33,0.00,,,0.00,227.000000,,2013-05-27 22:42:00,
2013-05-27 17:53:00,67.0,37.0,-100.00,SE,143,7.0,16.0,33,0.00,,,0.00,227.000000,,2013-05-27 22:53:00,
2013-05-27 18:02:00,67.0,37.0,-100.00,SE,143,7.0,16.0,33,0.00,,,0.00,227.000000,,2013-05-27 23:02:00,
2013-05-27 18:10:00,65.0,37.0,-100.00,SE,129,7.0,16.0,36,0.00,,,0.00,226.000000,,2013-05-27 23:10:00,
2013-05-27 18:32:00,65.0,37.0,-100.00,SE,129,7.0,16.0,36,0.00,,,0.00,226.000000,,2013-05-27 23:32:00,
2013-05-27 18:42:00,65.0,37.0,-100.00,SE,129,7.0,16.0,36,0.00,,,0.00,226.000000,,2013-05-27 23:42:00,
2013-05-27 18:52:00,65.0,37.0,-100.00,SE,129,7.0,16.0,36,0.00,,,0.00,226.000000,,2013-05-27 23:52:00,
2013-05-27 19:01:00,65.0,37.0,-100.00,SE,129,7.0,16.0,36,0.00,,,0.00,226.000000,,2013-05-28 00:01:00,
2013-05-27 20:10:00,59.0,38.0,-100.00,SE,146,5.0,15.0,46,-99.99,,,0.00,34.000000,,2013-05-28 01:10:00,
2013-05-27 20:32:00,59.0,38.0,-100.00,SE,146,5.0,15.0,46,-99.99,,,0.00,34.000000,,2013-05-28 01:32:00,
2013-05-27 20:42:00,59.0,38.0,-100.00,SE,146,5.0,15.0,46,-99.99,,,0.00,34.000000,,2013-05-28 01:42:00,
2013-05-27 20:52:00,59.0,38.0,-100.00,SE,146,5.0,15.0,46,-99.99,,,0.00,34.000000,,2013-05-28 01:52:00,
2013-05-27 21:02:00,59.0,38.0,-100.00,SE,146,5.0,15.0,46,-99.99,,,0.00,34.000000,,2013-05-28 02:02:00,
2013-05-27 21:10:00,58.0,40.0,-100.00,SE,127,5.0,12.0,51,0.00,,,0.00,1.000000,,2013-05-28 02:10:00,
2013-05-27 21:32:00,58.0,40.0,-100.00,SE,127,5.0,12.0,51,0.00,,,0.00,1.000000,,2013-05-28 02:32:00,
2013-05-27 21:42:00,58.0,40.0,-100.00,SE,127,5.0,12.0,51,0.00,,,0.00,1.000000,,2013-05-28 02:42:00,
2013-05-27 21:52:00,58.0,40.0,-100.00,SE,127,5.0,12.0,51,0.00,,,0.00,1.000000,,2013-05-28 02:52:00,
2013-05-27 22:01:00,58.0,40.0,-100.00,SE,127,5.0,12.0,51,0.00,,,0.00,1.000000,,2013-05-28 03:01:00,
2013-05-27 22:10:00,58.0,39.0,-100.00,SE,124,6.0,15.0,50,0.00,,,0.00,0.000000,,2013-05-28 03:10:00,
2013-05-27 22:33:00,58.0,39.0,-100.00,SE,124,6.0,15.0,50,0.00,,,0.00,0.000000,,2013-05-28 03:33:00,
2013-05-27 22:43:00,58.0,39.0,-100.00,SE,124,6.0,15.0,50,0.00,,,0.00,0.000000,,2013-05-28 03:43:00,
2013-05-27 22:53:00,58.0,39.0,-100.00,SE,124,6.0,15.0,50,0.00,,,0.00,0.000000,,2013-05-28 03:53:00,
2013-05-27 23:03:00,58.0,39.0,-100.00,SE,124,6.0,15.0,50,0.00,,,0.00,0.000000,,2013-05-28 04:03:00,
2013-05-27 23:10:00,57.0,40.0,-100.00,SE,138,3.0,14.0,53,0.00,,,0.00,0.000000,,2013-05-28 04:10:00,
2013-05-27 23:33:00,57.0,40.0,-100.00,SE,138,3.0,14.0,53,0.00,,,0.00,0.000000,,2013-05-28 04:33:00,
2013-05-27 23:43:00,57.0,40.0,-100.00,SE,138,3.0,14.0,53,0.00,,,0.00,0.000000,,2013-05-28 04:43:00,
2013-05-27 23:53:00,57.0,40.0,-100.00,SE,138,3.0,14.0,53,0.00,,,0.00,0.000000,,2013-05-28 04:53:00,